sensor_id;sensor_type;location;lat;lon;timestamp;pressure;altitude;pressure_sealevel;temperature;humidity
5753;BME280;2901;42.140;24.760;2024-03-02T00:00:18;99095.81;;;10.06;100.00
5753;BME280;2901;42.140;24.760;2024-03-02T00:02:47;99091.53;;;10.02;100.00
5753;BME280;2901;42.140;24.760;2024-03-02T00:05:14;99094.97;;;10.03;100.00
5753;BME280;2901;42.140;24.760;2024-03-02T00:07:45;99086.44;;;9.95;100.00
5753;BME280;2901;42.140;24.760;2024-03-02T00:10:13;99081.25;;;9.98;100.00
5753;BME280;2901;42.140;24.760;2024-03-02T00:12:40;99091.59;;;9.98;100.00
5753;BME280;2901;42.140;24.760;2024-03-02T00:18:16;99078.00;;;9.80;100.00
5753;BME280;2901;42.140;24.760;2024-03-02T00:20:43;99087.44;;;9.81;100.00
5753;BME280;2901;42.140;24.760;2024-03-02T00:23:09;99086.53;;;9.85;100.00
5753;BME280;2901;42.140;24.760;2024-03-02T00:25:52;99080.47;;;9.88;100.00
5753;BME280;2901;42.140;24.760;2024-03-02T00:28:25;99065.84;;;9.87;100.00
5753;BME280;2901;42.140;24.760;2024-03-02T00:33:25;99082.28;;;9.80;100.00
5753;BME280;2901;42.140;24.760;2024-03-02T00:35:51;99083.19;;;9.77;100.00
5753;BME280;2901;42.140;24.760;2024-03-02T00:38:17;99079.81;;;9.69;100.00
5753;BME280;2901;42.140;24.760;2024-03-02T00:40:43;99072.84;;;9.77;100.00
5753;BME280;2901;42.140;24.760;2024-03-02T00:43:42;99072.03;;;9.74;100.00
5753;BME280;2901;42.140;24.760;2024-03-02T00:46:18;99063.56;;;9.57;100.00
5753;BME280;2901;42.140;24.760;2024-03-02T00:48:55;99070.47;;;9.58;100.00
5753;BME280;2901;42.140;24.760;2024-03-02T00:51:22;99069.63;;;9.53;100.00
5753;BME280;2901;42.140;24.760;2024-03-02T00:53:48;99058.44;;;9.54;100.00
5753;BME280;2901;42.140;24.760;2024-03-02T00:56:14;99061.81;;;9.59;100.00
5753;BME280;2901;42.140;24.760;2024-03-02T00:58:40;99047.22;;;9.52;100.00
5753;BME280;2901;42.140;24.760;2024-03-02T01:01:05;99051.63;;;9.44;100.00
5753;BME280;2901;42.140;24.760;2024-03-02T01:03:32;99047.25;;;9.49;100.00
5753;BME280;2901;42.140;24.760;2024-03-02T01:05:58;99043.81;;;9.51;100.00
5753;BME280;2901;42.140;24.760;2024-03-02T01:08:24;99035.13;;;9.57;100.00
5753;BME280;2901;42.140;24.760;2024-03-02T01:10:49;99035.03;;;9.66;100.00
5753;BME280;2901;42.140;24.760;2024-03-02T01:13:15;99035.88;;;9.71;100.00
5753;BME280;2901;42.140;24.760;2024-03-02T01:15:40;99041.88;;;9.74;100.00
5753;BME280;2901;42.140;24.760;2024-03-02T01:18:05;99029.72;;;9.79;100.00
5753;BME280;2901;42.140;24.760;2024-03-02T01:20:31;99035.75;;;9.80;100.00
5753;BME280;2901;42.140;24.760;2024-03-02T01:22:56;99031.47;;;9.77;100.00
5753;BME280;2901;42.140;24.760;2024-03-02T01:25:22;99028.94;;;9.73;100.00
5753;BME280;2901;42.140;24.760;2024-03-02T01:27:47;99031.63;;;9.62;100.00
5753;BME280;2901;42.140;24.760;2024-03-02T01:30:13;99024.81;;;9.55;100.00
5753;BME280;2901;42.140;24.760;2024-03-02T01:32:38;99018.00;;;9.48;100.00
5753;BME280;2901;42.140;24.760;2024-03-02T01:35:05;99019.72;;;9.48;100.00
5753;BME280;2901;42.140;24.760;2024-03-02T01:37:30;99029.28;;;9.41;100.00
5753;BME280;2901;42.140;24.760;2024-03-02T01:39:55;99033.53;;;9.44;100.00
5753;BME280;2901;42.140;24.760;2024-03-02T01:42:21;99027.47;;;9.48;100.00
5753;BME280;2901;42.140;24.760;2024-03-02T01:44:47;99034.34;;;9.49;100.00
5753;BME280;2901;42.140;24.760;2024-03-02T01:47:12;99027.38;;;9.57;100.00
5753;BME280;2901;42.140;24.760;2024-03-02T01:49:38;99022.19;;;9.60;100.00
5753;BME280;2901;42.140;24.760;2024-03-02T01:52:04;99023.94;;;9.58;100.00
5753;BME280;2901;42.140;24.760;2024-03-02T01:54:29;99024.00;;;9.49;100.00
5753;BME280;2901;42.140;24.760;2024-03-02T01:56:55;99029.09;;;9.58;100.00
5753;BME280;2901;42.140;24.760;2024-03-02T01:59:20;99030.72;;;9.68;100.00
5753;BME280;2901;42.140;24.760;2024-03-02T02:01:45;99030.66;;;9.74;100.00
5753;BME280;2901;42.140;24.760;2024-03-02T02:04:11;99020.28;;;9.77;100.00
5753;BME280;2901;42.140;24.760;2024-03-02T02:06:36;99019.41;;;9.76;100.00
5753;BME280;2901;42.140;24.760;2024-03-02T02:09:02;99023.69;;;9.80;100.00
5753;BME280;2901;42.140;24.760;2024-03-02T02:11:27;99019.47;;;9.72;100.00
5753;BME280;2901;42.140;24.760;2024-03-02T02:13:53;99014.44;;;9.60;100.00
5753;BME280;2901;42.140;24.760;2024-03-02T02:16:21;99017.88;;;9.59;100.00
5753;BME280;2901;42.140;24.760;2024-03-02T02:18:46;99020.47;;;9.59;100.00
5753;BME280;2901;42.140;24.760;2024-03-02T02:21:12;99019.59;;;9.58;100.00
5753;BME280;2901;42.140;24.760;2024-03-02T02:23:37;99020.41;;;9.62;100.00
5753;BME280;2901;42.140;24.760;2024-03-02T02:26:03;99015.31;;;9.57;100.00
5753;BME280;2901;42.140;24.760;2024-03-02T02:28:29;99011.84;;;9.58;100.00
5753;BME280;2901;42.140;24.760;2024-03-02T02:30:54;99016.97;;;9.63;100.00
5753;BME280;2901;42.140;24.760;2024-03-02T02:33:21;99016.16;;;9.59;100.00
5753;BME280;2901;42.140;24.760;2024-03-02T02:35:46;99016.97;;;9.63;100.00
5753;BME280;2901;42.140;24.760;2024-03-02T02:38:12;99009.22;;;9.64;100.00
5753;BME280;2901;42.140;24.760;2024-03-02T02:40:37;99007.56;;;9.57;100.00
5753;BME280;2901;42.140;24.760;2024-03-02T02:43:03;99008.47;;;9.55;100.00
5753;BME280;2901;42.140;24.760;2024-03-02T02:45:28;98986.94;;;9.53;100.00
5753;BME280;2901;42.140;24.760;2024-03-02T02:47:54;99000.63;;;9.61;100.00
5753;BME280;2901;42.140;24.760;2024-03-02T02:50:19;99005.03;;;9.54;100.00
5753;BME280;2901;42.140;24.760;2024-03-02T02:52:45;99011.88;;;9.57;100.00
5753;BME280;2901;42.140;24.760;2024-03-02T02:55:12;99009.31;;;9.52;100.00
5753;BME280;2901;42.140;24.760;2024-03-02T02:57:39;99008.44;;;9.58;100.00
5753;BME280;2901;42.140;24.760;2024-03-02T03:00:10;99007.50;;;9.62;100.00
5753;BME280;2901;42.140;24.760;2024-03-02T03:02:38;99012.78;;;9.53;100.00
5753;BME280;2901;42.140;24.760;2024-03-02T03:05:09;99008.50;;;9.49;100.00
5753;BME280;2901;42.140;24.760;2024-03-02T03:07:34;99011.97;;;9.48;100.00
5753;BME280;2901;42.140;24.760;2024-03-02T03:10:01;99009.31;;;9.54;100.00
5753;BME280;2901;42.140;24.760;2024-03-02T03:12:28;99007.50;;;9.63;100.00
5753;BME280;2901;42.140;24.760;2024-03-02T03:14:53;99010.16;;;9.56;100.00
5753;BME280;2901;42.140;24.760;2024-03-02T03:17:19;99000.72;;;9.52;100.00
5753;BME280;2901;42.140;24.760;2024-03-02T03:19:44;99013.66;;;9.50;100.00
5753;BME280;2901;42.140;24.760;2024-03-02T03:22:10;99017.00;;;9.58;100.00
5753;BME280;2901;42.140;24.760;2024-03-02T03:24:35;99014.47;;;9.55;100.00
5753;BME280;2901;42.140;24.760;2024-03-02T03:27:00;99006.63;;;9.63;100.00
5753;BME280;2901;42.140;24.760;2024-03-02T03:29:26;98999.72;;;9.68;100.00
5753;BME280;2901;42.140;24.760;2024-03-02T03:31:51;98997.94;;;9.70;100.00
5753;BME280;2901;42.140;24.760;2024-03-02T03:34:16;98995.53;;;9.55;100.00
5753;BME280;2901;42.140;24.760;2024-03-02T03:36:42;98992.88;;;9.61;100.00
5753;BME280;2901;42.140;24.760;2024-03-02T03:39:08;98993.63;;;9.69;100.00
5753;BME280;2901;42.140;24.760;2024-03-02T03:41:33;98985.16;;;9.56;100.00
5753;BME280;2901;42.140;24.760;2024-03-02T03:43:59;99005.03;;;9.53;100.00
5753;BME280;2901;42.140;24.760;2024-03-02T03:46:24;98992.94;;;9.56;100.00
5753;BME280;2901;42.140;24.760;2024-03-02T03:48:50;98994.56;;;9.63;100.00
5753;BME280;2901;42.140;24.760;2024-03-02T03:51:16;98997.09;;;9.71;100.00
5753;BME280;2901;42.140;24.760;2024-03-02T03:53:41;98992.06;;;9.57;100.00
5753;BME280;2901;42.140;24.760;2024-03-02T03:56:06;98992.06;;;9.57;100.00
5753;BME280;2901;42.140;24.760;2024-03-02T03:58:32;99001.47;;;9.63;100.00
5753;BME280;2901;42.140;24.760;2024-03-02T04:00:57;99000.53;;;9.68;100.00
5753;BME280;2901;42.140;24.760;2024-03-02T04:03:22;98997.09;;;9.71;100.00
5753;BME280;2901;42.140;24.760;2024-03-02T04:05:48;99002.28;;;9.66;100.00
5753;BME280;2901;42.140;24.760;2024-03-02T04:08:13;99000.59;;;9.64;100.00
5753;BME280;2901;42.140;24.760;2024-03-02T04:10:38;99005.84;;;9.56;100.00
5753;BME280;2901;42.140;24.760;2024-03-02T04:13:05;99016.97;;;9.63;100.00
5753;BME280;2901;42.140;24.760;2024-03-02T04:15:31;99013.56;;;9.61;100.00
5753;BME280;2901;42.140;24.760;2024-03-02T04:17:56;99016.94;;;9.66;100.00
5753;BME280;2901;42.140;24.760;2024-03-02T04:20:21;99010.09;;;9.62;100.00
5753;BME280;2901;42.140;24.760;2024-03-02T04:22:47;99005.78;;;9.64;100.00
5753;BME280;2901;42.140;24.760;2024-03-02T04:25:12;99020.50;;;9.56;100.00
5753;BME280;2901;42.140;24.760;2024-03-02T04:27:37;99021.34;;;9.56;100.00
5753;BME280;2901;42.140;24.760;2024-03-02T04:30:04;99017.00;;;9.58;100.00
5753;BME280;2901;42.140;24.760;2024-03-02T04:32:30;99015.31;;;9.56;100.00
5753;BME280;2901;42.140;24.760;2024-03-02T04:34:56;99014.50;;;9.52;100.00
5753;BME280;2901;42.140;24.760;2024-03-02T04:37:22;99012.63;;;9.66;100.00
5753;BME280;2901;42.140;24.760;2024-03-02T04:39:47;99007.53;;;9.60;100.00
5753;BME280;2901;42.140;24.760;2024-03-02T04:42:13;99006.56;;;9.70;100.00
5753;BME280;2901;42.140;24.760;2024-03-02T04:44:38;99003.06;;;9.74;100.00
5753;BME280;2901;42.140;24.760;2024-03-02T04:47:04;99009.06;;;9.78;100.00
5753;BME280;2901;42.140;24.760;2024-03-02T04:49:30;99004.78;;;9.77;100.00
5753;BME280;2901;42.140;24.760;2024-03-02T04:51:55;98998.72;;;9.78;100.00
5753;BME280;2901;42.140;24.760;2024-03-02T04:54:22;99006.38;;;9.85;100.00
5753;BME280;2901;42.140;24.760;2024-03-02T04:56:47;99011.56;;;9.87;100.00
5753;BME280;2901;42.140;24.760;2024-03-02T04:59:19;99004.66;;;9.86;100.00
5753;BME280;2901;42.140;24.760;2024-03-02T05:01:45;99009.00;;;9.84;100.00
5753;BME280;2901;42.140;24.760;2024-03-02T05:04:10;99016.78;;;9.79;100.00
5753;BME280;2901;42.140;24.760;2024-03-02T05:06:38;99007.34;;;9.75;100.00
5753;BME280;2901;42.140;24.760;2024-03-02T05:09:04;99007.28;;;9.81;100.00
5753;BME280;2901;42.140;24.760;2024-03-02T05:11:29;99023.56;;;9.89;100.00
5753;BME280;2901;42.140;24.760;2024-03-02T05:14:04;99013.22;;;9.91;100.00
5753;BME280;2901;42.140;24.760;2024-03-02T05:16:33;99015.91;;;9.83;100.00
5753;BME280;2901;42.140;24.760;2024-03-02T05:18:59;99027.09;;;9.84;100.00
5753;BME280;2901;42.140;24.760;2024-03-02T05:21:24;99025.31;;;9.89;100.00
5753;BME280;2901;42.140;24.760;2024-03-02T05:23:50;99026.16;;;9.89;100.00
5753;BME280;2901;42.140;24.760;2024-03-02T05:26:15;99018.41;;;9.88;100.00
5753;BME280;2901;42.140;24.760;2024-03-02T05:28:41;99028.81;;;9.82;100.00
5753;BME280;2901;42.140;24.760;2024-03-02T05:31:10;99028.91;;;9.77;100.00
5753;BME280;2901;42.140;24.760;2024-03-02T05:33:39;99034.97;;;9.73;100.00
5753;BME280;2901;42.140;24.760;2024-03-02T05:36:04;99034.09;;;9.73;100.00
5753;BME280;2901;42.140;24.760;2024-03-02T05:38:30;99041.06;;;9.66;100.00
5753;BME280;2901;42.140;24.760;2024-03-02T05:40:56;99044.53;;;9.64;100.00
5753;BME280;2901;42.140;24.760;2024-03-02T05:43:21;99038.47;;;9.66;100.00
5753;BME280;2901;42.140;24.760;2024-03-02T05:45:46;99051.38;;;9.71;100.00
5753;BME280;2901;42.140;24.760;2024-03-02T05:48:12;99049.66;;;9.71;100.00
5753;BME280;2901;42.140;24.760;2024-03-02T05:50:38;99045.34;;;9.70;100.00
5753;BME280;2901;42.140;24.760;2024-03-02T05:53:03;99038.44;;;9.71;100.00
5753;BME280;2901;42.140;24.760;2024-03-02T05:55:29;99040.97;;;9.75;100.00
5753;BME280;2901;42.140;24.760;2024-03-02T05:57:54;99043.50;;;9.78;100.00
5753;BME280;2901;42.140;24.760;2024-03-02T06:00:28;99039.16;;;9.83;100.00
5753;BME280;2901;42.140;24.760;2024-03-02T06:02:53;99039.97;;;9.88;100.00
5753;BME280;2901;42.140;24.760;2024-03-02T06:05:19;99038.19;;;9.94;100.00
5753;BME280;2901;42.140;24.760;2024-03-02T06:07:44;99042.34;;;10.07;100.00
5753;BME280;2901;42.140;24.760;2024-03-02T06:10:10;99033.69;;;10.11;100.00
5753;BME280;2901;42.140;24.760;2024-03-02T06:12:36;99024.16;;;10.14;100.00
5753;BME280;2901;42.140;24.760;2024-03-02T06:15:01;99031.91;;;10.17;100.00
5753;BME280;2901;42.140;24.760;2024-03-02T06:17:27;99036.16;;;10.21;100.00
5753;BME280;2901;42.140;24.760;2024-03-02T06:19:52;99035.28;;;10.22;100.00
5753;BME280;2901;42.140;24.760;2024-03-02T06:22:17;99049.00;;;10.30;100.00
5753;BME280;2901;42.140;24.760;2024-03-02T06:24:44;99043.03;;;10.24;100.00
5753;BME280;2901;42.140;24.760;2024-03-02T06:27:09;99053.22;;;10.34;100.00
5753;BME280;2901;42.140;24.760;2024-03-02T06:29:35;99044.66;;;10.31;100.00
5753;BME280;2901;42.140;24.760;2024-03-02T06:32:00;99049.81;;;10.31;100.00
5753;BME280;2901;42.140;24.760;2024-03-02T06:34:26;99047.31;;;10.26;100.00
5753;BME280;2901;42.140;24.760;2024-03-02T06:36:51;99051.63;;;10.24;100.00
5753;BME280;2901;42.140;24.760;2024-03-02T06:39:17;99050.66;;;10.36;100.00
5753;BME280;2901;42.140;24.760;2024-03-02T06:41:42;99053.34;;;10.27;100.00
5753;BME280;2901;42.140;24.760;2024-03-02T06:44:08;99049.91;;;10.25;100.00
5753;BME280;2901;42.140;24.760;2024-03-02T06:46:33;99043.81;;;10.27;100.00
5753;BME280;2901;42.140;24.760;2024-03-02T06:48:58;99059.22;;;10.39;100.00
5753;BME280;2901;42.140;24.760;2024-03-02T06:51:24;99063.69;;;10.27;100.00
5753;BME280;2901;42.140;24.760;2024-03-02T06:53:49;99070.56;;;10.28;100.00
5753;BME280;2901;42.140;24.760;2024-03-02T06:56:14;99075.81;;;10.22;100.00
5753;BME280;2901;42.140;24.760;2024-03-02T06:58:40;99074.88;;;10.30;100.00
5753;BME280;2901;42.140;24.760;2024-03-02T07:01:05;99073.09;;;10.32;100.00
5753;BME280;2901;42.140;24.760;2024-03-02T07:03:31;99064.66;;;10.18;100.00
5753;BME280;2901;42.140;24.760;2024-03-02T07:05:57;99070.69;;;10.19;100.00
5753;BME280;2901;42.140;24.760;2024-03-02T07:08:22;99072.44;;;10.12;100.00
5753;BME280;2901;42.140;24.760;2024-03-02T07:10:47;99073.31;;;10.17;100.00
5753;BME280;2901;42.140;24.760;2024-03-02T07:13:13;99060.28;;;10.22;100.00
5753;BME280;2901;42.140;24.760;2024-03-02T07:15:38;99050.69;;;10.31;100.00
5753;BME280;2901;42.140;24.760;2024-03-02T07:18:22;99041.16;;;10.36;100.00
5753;BME280;2901;42.140;24.760;2024-03-02T07:20:47;99062.56;;;10.48;100.00
5753;BME280;2901;42.140;24.760;2024-03-02T07:23:15;99063.44;;;10.45;100.00
5753;BME280;2901;42.140;24.760;2024-03-02T07:25:40;99066.88;;;10.49;100.00
5753;BME280;2901;42.140;24.760;2024-03-02T07:28:05;99064.28;;;10.50;100.00
5753;BME280;2901;42.140;24.760;2024-03-02T07:30:32;99072.78;;;10.60;100.00
5753;BME280;2901;42.140;24.760;2024-03-02T07:32:58;99076.91;;;10.71;100.00
5753;BME280;2901;42.140;24.760;2024-03-02T07:35:24;99082.03;;;10.76;100.00
5753;BME280;2901;42.140;24.760;2024-03-02T07:37:53;99074.13;;;10.83;100.00
5753;BME280;2901;42.140;24.760;2024-03-02T07:40:19;99080.03;;;10.94;100.00
5753;BME280;2901;42.140;24.760;2024-03-02T07:42:45;99064.63;;;10.85;100.00
5753;BME280;2901;42.140;24.760;2024-03-02T07:45:10;99080.94;;;10.92;100.00
5753;BME280;2901;42.140;24.760;2024-03-02T07:47:36;99073.22;;;10.87;100.00
5753;BME280;2901;42.140;24.760;2024-03-02T07:50:01;99073.31;;;10.83;100.00
5753;BME280;2901;42.140;24.760;2024-03-02T07:52:28;99068.94;;;10.83;100.00
5753;BME280;2901;42.140;24.760;2024-03-02T07:54:53;99067.16;;;10.88;100.00
5753;BME280;2901;42.140;24.760;2024-03-02T07:57:19;99066.16;;;10.99;100.00
5753;BME280;2901;42.140;24.760;2024-03-02T07:59:45;99068.59;;;11.08;100.00
5753;BME280;2901;42.140;24.760;2024-03-02T08:02:10;99091.97;;;11.05;100.00
5753;BME280;2901;42.140;24.760;2024-03-02T08:04:37;99091.09;;;11.06;100.00
5753;BME280;2901;42.140;24.760;2024-03-02T08:07:03;99095.47;;;11.02;100.00
5753;BME280;2901;42.140;24.760;2024-03-02T08:09:29;99095.63;;;10.91;100.00
5753;BME280;2901;42.140;24.760;2024-03-02T08:11:55;99092.22;;;10.88;100.00
5753;BME280;2901;42.140;24.760;2024-03-02T08:14:21;99094.63;;;11.00;100.00
5753;BME280;2901;42.140;24.760;2024-03-02T08:16:47;99088.50;;;11.04;100.00
5753;BME280;2901;42.140;24.760;2024-03-02T08:19:12;99088.34;;;11.15;100.00
5753;BME280;2901;42.140;24.760;2024-03-02T08:21:37;99087.06;;;10.86;100.00
5753;BME280;2901;42.140;24.760;2024-03-02T08:24:03;99090.34;;;10.98;100.00
5753;BME280;2901;42.140;24.760;2024-03-02T08:26:29;99077.28;;;11.04;100.00
5753;BME280;2901;42.140;24.760;2024-03-02T08:28:57;99065.16;;;11.07;100.00
5753;BME280;2901;42.140;24.760;2024-03-02T08:31:22;99073.00;;;11.03;100.00
5753;BME280;2901;42.140;24.760;2024-03-02T08:33:48;99082.50;;;11.02;100.00
5753;BME280;2901;42.140;24.760;2024-03-02T08:36:13;99080.84;;;10.97;100.00
5753;BME280;2901;42.140;24.760;2024-03-02T08:38:39;99080.97;;;10.89;100.00
5753;BME280;2901;42.140;24.760;2024-03-02T08:41:05;99074.25;;;10.76;100.00
5753;BME280;2901;42.140;24.760;2024-03-02T08:43:30;99082.00;;;10.79;100.00
5753;BME280;2901;42.140;24.760;2024-03-02T08:45:56;99082.19;;;10.64;100.00
5753;BME280;2901;42.140;24.760;2024-03-02T08:48:21;99076.84;;;10.74;100.00
5753;BME280;2901;42.140;24.760;2024-03-02T08:50:47;99080.41;;;10.67;100.00
5753;BME280;2901;42.140;24.760;2024-03-02T08:53:12;99087.34;;;10.64;100.00
5753;BME280;2901;42.140;24.760;2024-03-02T08:55:37;99074.41;;;10.67;100.00
5753;BME280;2901;42.140;24.760;2024-03-02T08:58:03;99076.09;;;10.69;100.00
5753;BME280;2901;42.140;24.760;2024-03-02T09:00:28;99076.03;;;10.71;100.00
5753;BME280;2901;42.140;24.760;2024-03-02T09:02:54;99051.09;;;10.65;100.00
5753;BME280;2901;42.140;24.760;2024-03-02T09:05:19;99074.94;;;10.88;100.00
5753;BME280;2901;42.140;24.760;2024-03-02T09:07:45;99078.16;;;11.04;100.00
5753;BME280;2901;42.140;24.760;2024-03-02T09:10:10;99079.63;;;11.22;100.00
5753;BME280;2901;42.140;24.760;2024-03-02T09:12:35;99070.81;;;11.30;100.00
5753;BME280;2901;42.140;24.760;2024-03-02T09:15:01;99075.47;;;11.10;100.00
5753;BME280;2901;42.140;24.760;2024-03-02T09:17:27;99084.69;;;11.26;100.00
5753;BME280;2901;42.140;24.760;2024-03-02T09:19:53;99088.78;;;11.42;100.00
5753;BME280;2901;42.140;24.760;2024-03-02T09:22:19;99066.28;;;11.44;100.00
5753;BME280;2901;42.140;24.760;2024-03-02T09:24:44;99094.56;;;11.57;100.00
5753;BME280;2901;42.140;24.760;2024-03-02T09:27:10;99092.34;;;11.35;100.00
5753;BME280;2901;42.140;24.760;2024-03-02T09:29:35;99089.13;;;11.23;100.00
5753;BME280;2901;42.140;24.760;2024-03-02T09:32:01;99088.31;;;11.19;100.00
5753;BME280;2901;42.140;24.760;2024-03-02T09:34:26;99094.47;;;11.11;100.00
5753;BME280;2901;42.140;24.760;2024-03-02T09:36:52;99087.34;;;11.25;100.00
5753;BME280;2901;42.140;24.760;2024-03-02T09:39:17;99088.91;;;11.33;100.00
5753;BME280;2901;42.140;24.760;2024-03-02T09:41:43;99087.88;;;11.45;100.00
5753;BME280;2901;42.140;24.760;2024-03-02T09:44:09;99071.50;;;11.41;100.00
5753;BME280;2901;42.140;24.760;2024-03-02T09:46:34;99090.25;;;11.59;100.00
5753;BME280;2901;42.140;24.760;2024-03-02T09:49:02;99087.47;;;11.68;100.00
5753;BME280;2901;42.140;24.760;2024-03-02T09:51:28;99086.47;;;11.76;100.00
5753;BME280;2901;42.140;24.760;2024-03-02T09:53:55;99088.63;;;12.01;100.00
5753;BME280;2901;42.140;24.760;2024-03-02T09:56:21;99084.72;;;12.24;100.00
5753;BME280;2901;42.140;24.760;2024-03-02T09:58:47;99090.44;;;12.40;100.00
5753;BME280;2901;42.140;24.760;2024-03-02T10:01:12;99079.66;;;12.60;100.00
5753;BME280;2901;42.140;24.760;2024-03-02T10:03:38;99089.44;;;12.87;100.00
5753;BME280;2901;42.140;24.760;2024-03-02T10:06:23;99087.38;;;13.01;100.00
5753;BME280;2901;42.140;24.760;2024-03-02T10:08:49;99088.66;;;13.23;100.00
5753;BME280;2901;42.140;24.760;2024-03-02T10:11:32;99079.59;;;13.38;100.00
5753;BME280;2901;42.140;24.760;2024-03-02T10:16:38;99080.31;;;13.44;100.00
5753;BME280;2901;42.140;24.760;2024-03-02T10:19:20;99080.00;;;13.21;100.00
5753;BME280;2901;42.140;24.760;2024-03-02T10:21:50;99078.88;;;13.33;100.00
5753;BME280;2901;42.140;24.760;2024-03-02T10:24:19;99073.34;;;13.45;100.00
5753;BME280;2901;42.140;24.760;2024-03-02T10:26:45;99080.03;;;13.55;100.00
5753;BME280;2901;42.140;24.760;2024-03-02T10:29:11;99076.63;;;13.53;100.00
5753;BME280;2901;42.140;24.760;2024-03-02T10:31:42;99070.34;;;13.62;100.00
5753;BME280;2901;42.140;24.760;2024-03-02T10:34:09;99072.84;;;13.65;100.00
5753;BME280;2901;42.140;24.760;2024-03-02T10:36:36;99065.75;;;13.37;100.00
5753;BME280;2901;42.140;24.760;2024-03-02T10:39:05;99067.63;;;13.31;100.00
5753;BME280;2901;42.140;24.760;2024-03-02T10:41:35;99064.91;;;13.00;100.00
5753;BME280;2901;42.140;24.760;2024-03-02T10:44:05;99061.75;;;12.86;100.00
5753;BME280;2901;42.140;24.760;2024-03-02T10:46:32;99046.31;;;12.80;100.00
5753;BME280;2901;42.140;24.760;2024-03-02T10:48:59;99047.19;;;12.79;100.00
5753;BME280;2901;42.140;24.760;2024-03-02T10:51:26;99041.31;;;12.71;100.00
5753;BME280;2901;42.140;24.760;2024-03-02T10:53:53;99043.69;;;12.80;100.00
5753;BME280;2901;42.140;24.760;2024-03-02T10:56:28;99037.34;;;12.91;100.00
5753;BME280;2901;42.140;24.760;2024-03-02T11:01:32;99035.22;;;13.10;100.00
5753;BME280;2901;42.140;24.760;2024-03-02T11:03:58;99043.09;;;13.06;100.00
5753;BME280;2901;42.140;24.760;2024-03-02T11:06:26;99035.13;;;12.76;100.00
5753;BME280;2901;42.140;24.760;2024-03-02T11:08:55;99030.72;;;12.80;100.00
5753;BME280;2901;42.140;24.760;2024-03-02T11:11:28;99034.16;;;12.80;100.00
5753;BME280;2901;42.140;24.760;2024-03-02T11:13:57;99028.44;;;12.66;100.00
5753;BME280;2901;42.140;24.760;2024-03-02T11:16:27;99030.94;;;12.71;100.00
5753;BME280;2901;42.140;24.760;2024-03-02T11:18:57;99027.53;;;12.67;100.00
5753;BME280;2901;42.140;24.760;2024-03-02T11:21:24;99029.22;;;12.70;100.00
5753;BME280;2901;42.140;24.760;2024-03-02T11:23:49;99018.25;;;12.56;100.00
5753;BME280;2901;42.140;24.760;2024-03-02T11:28:47;99018.03;;;12.66;100.00
5753;BME280;2901;42.140;24.760;2024-03-02T11:31:12;99018.81;;;12.70;100.00
5753;BME280;2901;42.140;24.760;2024-03-02T11:33:38;99021.56;;;12.62;100.00
5753;BME280;2901;42.140;24.760;2024-03-02T11:36:06;99015.34;;;12.71;100.00
5753;BME280;2901;42.140;24.760;2024-03-02T11:38:33;99012.53;;;12.80;100.00
5753;BME280;2901;42.140;24.760;2024-03-02T11:41:00;99002.72;;;12.91;100.00
5753;BME280;2901;42.140;24.760;2024-03-02T11:43:28;99004.28;;;12.98;100.00
5753;BME280;2901;42.140;24.760;2024-03-02T11:46:00;98999.00;;;13.02;100.00
5753;BME280;2901;42.140;24.760;2024-03-02T11:48:29;98989.31;;;13.08;100.00
5753;BME280;2901;42.140;24.760;2024-03-02T11:50:58;98989.25;;;13.12;100.00
5753;BME280;2901;42.140;24.760;2024-03-02T11:53:24;98986.41;;;13.21;100.00
5753;BME280;2901;42.140;24.760;2024-03-02T11:55:50;98983.66;;;12.92;100.00
5753;BME280;2901;42.140;24.760;2024-03-02T11:58:16;98983.78;;;12.87;100.00
5753;BME280;2901;42.140;24.760;2024-03-02T12:00:53;98956.25;;;12.79;100.00
5753;BME280;2901;42.140;24.760;2024-03-02T12:03:21;98988.13;;;12.87;100.00
5753;BME280;2901;42.140;24.760;2024-03-02T12:05:52;98991.81;;;12.77;100.00
5753;BME280;2901;42.140;24.760;2024-03-02T12:08:18;98988.47;;;12.72;100.00
5753;BME280;2901;42.140;24.760;2024-03-02T12:10:56;98980.56;;;12.76;100.00
5753;BME280;2901;42.140;24.760;2024-03-02T12:13:21;98976.81;;;12.88;100.00
5753;BME280;2901;42.140;24.760;2024-03-02T12:15:47;98981.19;;;12.87;100.00
5753;BME280;2901;42.140;24.760;2024-03-02T12:18:13;98978.03;;;13.10;100.00
5753;BME280;2901;42.140;24.760;2024-03-02T12:20:38;98969.84;;;13.25;100.00
5753;BME280;2901;42.140;24.760;2024-03-02T12:23:04;98977.22;;;13.07;100.00
5753;BME280;2901;42.140;24.760;2024-03-02T12:25:31;98968.53;;;13.08;100.00
5753;BME280;2901;42.140;24.760;2024-03-02T12:27:58;98970.31;;;13.06;100.00
5753;BME280;2901;42.140;24.760;2024-03-02T12:30:27;98964.81;;;12.84;100.00
5753;BME280;2901;42.140;24.760;2024-03-02T12:32:54;98962.63;;;13.01;100.00
5753;BME280;2901;42.140;24.760;2024-03-02T12:35:19;98968.84;;;12.95;100.00
5753;BME280;2901;42.140;24.760;2024-03-02T12:37:49;98978.22;;;12.66;100.00
5753;BME280;2901;42.140;24.760;2024-03-02T12:40:17;98980.44;;;12.44;100.00
5753;BME280;2901;42.140;24.760;2024-03-02T12:42:44;98983.28;;;12.33;100.00
5753;BME280;2901;42.140;24.760;2024-03-02T12:45:11;98983.06;;;12.03;100.00
5753;BME280;2901;42.140;24.760;2024-03-02T12:47:37;98987.34;;;12.05;100.00
5753;BME280;2901;42.140;24.760;2024-03-02T12:50:04;98983.84;;;12.06;100.00
5753;BME280;2901;42.140;24.760;2024-03-02T12:52:30;98983.84;;;12.06;100.00
5753;BME280;2901;42.140;24.760;2024-03-02T12:54:58;98987.28;;;12.08;100.00
5753;BME280;2901;42.140;24.760;2024-03-02T12:57:31;98993.03;;;11.81;100.00
5753;BME280;2901;42.140;24.760;2024-03-02T13:00:04;98986.72;;;11.46;100.00
5753;BME280;2901;42.140;24.760;2024-03-02T13:02:39;98986.44;;;11.16;100.00
5753;BME280;2901;42.140;24.760;2024-03-02T13:05:06;98996.75;;;11.19;100.00
5753;BME280;2901;42.140;24.760;2024-03-02T13:07:36;98985.53;;;11.18;100.00
5753;BME280;2901;42.140;24.760;2024-03-02T13:10:02;98994.09;;;11.20;100.00
5753;BME280;2901;42.140;24.760;2024-03-02T13:12:28;98998.31;;;11.27;100.00
5753;BME280;2901;42.140;24.760;2024-03-02T13:14:55;98999.19;;;11.26;100.00